sensor_id;sensor_type;location;lat;lon;timestamp;P1;durP1;ratioP1;P2;durP2;ratioP2
46266;SDS011;31998;48.798;15.066;2023-12-20T00:02:15;2.20;;;1.83;;
46266;SDS011;31998;48.798;15.066;2023-12-20T00:04:41;1.67;;;1.57;;
46266;SDS011;31998;48.798;15.066;2023-12-20T00:07:07;4.80;;;2.90;;
46266;SDS011;31998;48.798;15.066;2023-12-20T00:12:35;1.43;;;1.10;;
46266;SDS011;31998;48.798;15.066;2023-12-20T00:15:00;5.27;;;2.53;;
46266;SDS011;31998;48.798;15.066;2023-12-20T00:17:25;1.03;;;1.00;;
46266;SDS011;31998;48.798;15.066;2023-12-20T00:19:50;1.23;;;1.13;;
46266;SDS011;31998;48.798;15.066;2023-12-20T00:22:15;1.27;;;1.07;;
46266;SDS011;31998;48.798;15.066;2023-12-20T00:24:41;1.07;;;0.97;;
46266;SDS011;31998;48.798;15.066;2023-12-20T00:27:06;0.80;;;0.80;;
46266;SDS011;31998;48.798;15.066;2023-12-20T00:29:31;1.27;;;1.10;;
46266;SDS011;31998;48.798;15.066;2023-12-20T00:31:56;1.63;;;1.53;;
46266;SDS011;31998;48.798;15.066;2023-12-20T00:34:22;1.10;;;1.10;;
46266;SDS011;31998;48.798;15.066;2023-12-20T00:36:47;2.63;;;2.07;;
46266;SDS011;31998;48.798;15.066;2023-12-20T00:39:12;1.10;;;1.10;;
46266;SDS011;31998;48.798;15.066;2023-12-20T00:41:37;1.47;;;1.47;;
46266;SDS011;31998;48.798;15.066;2023-12-20T00:44:02;1.60;;;1.50;;
46266;SDS011;31998;48.798;15.066;2023-12-20T00:46:28;1.80;;;1.70;;
46266;SDS011;31998;48.798;15.066;2023-12-20T00:48:53;1.60;;;1.50;;
46266;SDS011;31998;48.798;15.066;2023-12-20T00:51:18;2.20;;;2.00;;
46266;SDS011;31998;48.798;15.066;2023-12-20T00:53:43;2.40;;;1.40;;
46266;SDS011;31998;48.798;15.066;2023-12-20T00:56:09;1.10;;;1.10;;
46266;SDS011;31998;48.798;15.066;2023-12-20T00:58:34;1.10;;;1.10;;
46266;SDS011;31998;48.798;15.066;2023-12-20T01:00:59;1.77;;;1.67;;
46266;SDS011;31998;48.798;15.066;2023-12-20T01:03:24;2.50;;;2.30;;
46266;SDS011;31998;48.798;15.066;2023-12-20T01:05:50;1.80;;;1.70;;
46266;SDS011;31998;48.798;15.066;2023-12-20T01:08:15;1.60;;;1.50;;
46266;SDS011;31998;48.798;15.066;2023-12-20T01:10:40;2.00;;;1.90;;
46266;SDS011;31998;48.798;15.066;2023-12-20T01:13:05;1.87;;;1.77;;
46266;SDS011;31998;48.798;15.066;2023-12-20T01:15:31;2.13;;;2.03;;
46266;SDS011;31998;48.798;15.066;2023-12-20T01:17:56;1.43;;;1.07;;
46266;SDS011;31998;48.798;15.066;2023-12-20T01:20:23;1.73;;;1.63;;
46266;SDS011;31998;48.798;15.066;2023-12-20T01:22:48;1.40;;;1.30;;
46266;SDS011;31998;48.798;15.066;2023-12-20T01:25:14;1.70;;;1.60;;
46266;SDS011;31998;48.798;15.066;2023-12-20T01:27:39;2.40;;;1.50;;
46266;SDS011;31998;48.798;15.066;2023-12-20T01:30:04;1.87;;;1.77;;
46266;SDS011;31998;48.798;15.066;2023-12-20T01:32:29;1.50;;;1.40;;
46266;SDS011;31998;48.798;15.066;2023-12-20T01:34:55;3.90;;;1.60;;
46266;SDS011;31998;48.798;15.066;2023-12-20T01:37:20;3.83;;;3.53;;
46266;SDS011;31998;48.798;15.066;2023-12-20T01:39:45;6.70;;;3.93;;
46266;SDS011;31998;48.798;15.066;2023-12-20T01:42:10;2.70;;;2.60;;
46266;SDS011;31998;48.798;15.066;2023-12-20T01:44:36;4.00;;;3.70;;
46266;SDS011;31998;48.798;15.066;2023-12-20T01:47:01;2.70;;;2.60;;
46266;SDS011;31998;48.798;15.066;2023-12-20T01:49:26;2.20;;;2.10;;
46266;SDS011;31998;48.798;15.066;2023-12-20T01:51:52;4.43;;;4.07;;
46266;SDS011;31998;48.798;15.066;2023-12-20T01:54:18;3.93;;;3.53;;
46266;SDS011;31998;48.798;15.066;2023-12-20T01:56:44;5.00;;;4.60;;
46266;SDS011;31998;48.798;15.066;2023-12-20T01:59:09;4.23;;;3.93;;
46266;SDS011;31998;48.798;15.066;2023-12-20T02:01:35;3.57;;;2.60;;
46266;SDS011;31998;48.798;15.066;2023-12-20T02:04:00;2.17;;;2.07;;
46266;SDS011;31998;48.798;15.066;2023-12-20T02:06:28;1.80;;;1.70;;
46266;SDS011;31998;48.798;15.066;2023-12-20T02:08:54;2.50;;;2.40;;
46266;SDS011;31998;48.798;15.066;2023-12-20T02:11:19;2.47;;;2.37;;
46266;SDS011;31998;48.798;15.066;2023-12-20T02:13:45;1.40;;;1.40;;
46266;SDS011;31998;48.798;15.066;2023-12-20T02:16:10;2.30;;;1.13;;
46266;SDS011;31998;48.798;15.066;2023-12-20T02:18:35;0.90;;;0.90;;
46266;SDS011;31998;48.798;15.066;2023-12-20T02:21:00;1.10;;;1.00;;
46266;SDS011;31998;48.798;15.066;2023-12-20T02:23:26;1.30;;;1.20;;
46266;SDS011;31998;48.798;15.066;2023-12-20T02:25:51;6.53;;;5.30;;
46266;SDS011;31998;48.798;15.066;2023-12-20T02:28:16;4.33;;;4.03;;
46266;SDS011;31998;48.798;15.066;2023-12-20T02:30:41;5.33;;;4.53;;
46266;SDS011;31998;48.798;15.066;2023-12-20T02:33:10;2.53;;;2.43;;
46266;SDS011;31998;48.798;15.066;2023-12-20T02:35:37;1.97;;;1.87;;
46266;SDS011;31998;48.798;15.066;2023-12-20T02:38:02;1.67;;;1.57;;
46266;SDS011;31998;48.798;15.066;2023-12-20T02:40:27;0.83;;;0.83;;
46266;SDS011;31998;48.798;15.066;2023-12-20T02:42:52;1.00;;;1.00;;
46266;SDS011;31998;48.798;15.066;2023-12-20T02:45:17;1.60;;;0.73;;
46266;SDS011;31998;48.798;15.066;2023-12-20T02:47:43;0.80;;;0.80;;
46266;SDS011;31998;48.798;15.066;2023-12-20T02:50:08;1.40;;;0.80;;
46266;SDS011;31998;48.798;15.066;2023-12-20T02:52:33;0.80;;;0.80;;
46266;SDS011;31998;48.798;15.066;2023-12-20T02:54:58;0.77;;;0.77;;
46266;SDS011;31998;48.798;15.066;2023-12-20T02:57:24;1.00;;;1.00;;
46266;SDS011;31998;48.798;15.066;2023-12-20T02:59:49;0.60;;;0.60;;
46266;SDS011;31998;48.798;15.066;2023-12-20T03:02:14;2.50;;;1.03;;
46266;SDS011;31998;48.798;15.066;2023-12-20T03:04:40;0.90;;;0.90;;
46266;SDS011;31998;48.798;15.066;2023-12-20T03:07:05;1.33;;;1.30;;
46266;SDS011;31998;48.798;15.066;2023-12-20T03:09:30;2.40;;;1.27;;
46266;SDS011;31998;48.798;15.066;2023-12-20T03:11:55;1.37;;;1.27;;
46266;SDS011;31998;48.798;15.066;2023-12-20T03:14:20;1.27;;;1.27;;
46266;SDS011;31998;48.798;15.066;2023-12-20T03:16:49;3.10;;;1.57;;
46266;SDS011;31998;48.798;15.066;2023-12-20T03:19:14;1.67;;;1.67;;
46266;SDS011;31998;48.798;15.066;2023-12-20T03:21:40;6.37;;;1.57;;
46266;SDS011;31998;48.798;15.066;2023-12-20T03:24:05;2.90;;;1.93;;
46266;SDS011;31998;48.798;15.066;2023-12-20T03:26:30;2.70;;;2.50;;
46266;SDS011;31998;48.798;15.066;2023-12-20T03:28:55;1.90;;;1.90;;
46266;SDS011;31998;48.798;15.066;2023-12-20T03:31:20;2.60;;;2.50;;
46266;SDS011;31998;48.798;15.066;2023-12-20T03:33:46;2.20;;;2.10;;
46266;SDS011;31998;48.798;15.066;2023-12-20T03:36:12;1.57;;;1.57;;
46266;SDS011;31998;48.798;15.066;2023-12-20T03:38:37;2.13;;;2.03;;
46266;SDS011;31998;48.798;15.066;2023-12-20T03:41:02;2.13;;;2.03;;
46266;SDS011;31998;48.798;15.066;2023-12-20T03:43:27;4.63;;;2.10;;
46266;SDS011;31998;48.798;15.066;2023-12-20T03:45:53;2.70;;;2.53;;
46266;SDS011;31998;48.798;15.066;2023-12-20T03:48:18;2.43;;;2.03;;
46266;SDS011;31998;48.798;15.066;2023-12-20T03:50:43;2.50;;;2.40;;
46266;SDS011;31998;48.798;15.066;2023-12-20T03:53:08;2.63;;;2.53;;
46266;SDS011;31998;48.798;15.066;2023-12-20T03:55:34;7.13;;;2.77;;
46266;SDS011;31998;48.798;15.066;2023-12-20T03:57:59;2.97;;;2.77;;
46266;SDS011;31998;48.798;15.066;2023-12-20T04:00:24;3.00;;;2.80;;
46266;SDS011;31998;48.798;15.066;2023-12-20T04:02:49;4.73;;;3.03;;
46266;SDS011;31998;48.798;15.066;2023-12-20T04:05:14;3.07;;;2.90;;
46266;SDS011;31998;48.798;15.066;2023-12-20T04:07:40;3.27;;;3.10;;
46266;SDS011;31998;48.798;15.066;2023-12-20T04:10:05;2.90;;;2.70;;
46266;SDS011;31998;48.798;15.066;2023-12-20T04:12:30;2.90;;;2.80;;
46266;SDS011;31998;48.798;15.066;2023-12-20T04:14:56;7.07;;;6.47;;
46266;SDS011;31998;48.798;15.066;2023-12-20T04:17:21;5.37;;;4.13;;
46266;SDS011;31998;48.798;15.066;2023-12-20T04:19:48;4.50;;;4.17;;
46266;SDS011;31998;48.798;15.066;2023-12-20T04:22:13;3.30;;;3.00;;
46266;SDS011;31998;48.798;15.066;2023-12-20T04:24:38;3.40;;;3.20;;
46266;SDS011;31998;48.798;15.066;2023-12-20T04:27:03;4.00;;;3.80;;
46266;SDS011;31998;48.798;15.066;2023-12-20T04:29:29;5.03;;;3.00;;
46266;SDS011;31998;48.798;15.066;2023-12-20T04:31:54;3.63;;;3.40;;
46266;SDS011;31998;48.798;15.066;2023-12-20T04:34:19;4.60;;;4.17;;
46266;SDS011;31998;48.798;15.066;2023-12-20T04:36:44;3.60;;;3.40;;
46266;SDS011;31998;48.798;15.066;2023-12-20T04:39:11;5.93;;;3.90;;
46266;SDS011;31998;48.798;15.066;2023-12-20T04:41:36;3.40;;;3.30;;
46266;SDS011;31998;48.798;15.066;2023-12-20T04:44:01;4.13;;;3.87;;
46266;SDS011;31998;48.798;15.066;2023-12-20T04:46:27;4.70;;;4.00;;
46266;SDS011;31998;48.798;15.066;2023-12-20T04:48:52;3.60;;;3.30;;
46266;SDS011;31998;48.798;15.066;2023-12-20T04:51:17;4.23;;;3.93;;
46266;SDS011;31998;48.798;15.066;2023-12-20T04:53:43;4.33;;;4.03;;
46266;SDS011;31998;48.798;15.066;2023-12-20T04:56:08;4.07;;;3.83;;
46266;SDS011;31998;48.798;15.066;2023-12-20T04:58:33;4.17;;;3.90;;
46266;SDS011;31998;48.798;15.066;2023-12-20T05:00:58;4.77;;;4.47;;
46266;SDS011;31998;48.798;15.066;2023-12-20T05:03:23;4.10;;;3.90;;
46266;SDS011;31998;48.798;15.066;2023-12-20T05:05:49;7.63;;;5.93;;
46266;SDS011;31998;48.798;15.066;2023-12-20T05:08:14;4.73;;;4.33;;
46266;SDS011;31998;48.798;15.066;2023-12-20T05:10:39;5.00;;;3.93;;
46266;SDS011;31998;48.798;15.066;2023-12-20T05:13:05;6.60;;;4.43;;
46266;SDS011;31998;48.798;15.066;2023-12-20T05:15:30;5.73;;;5.17;;
46266;SDS011;31998;48.798;15.066;2023-12-20T05:17:55;5.30;;;4.90;;
46266;SDS011;31998;48.798;15.066;2023-12-20T05:20:21;4.90;;;4.60;;
46266;SDS011;31998;48.798;15.066;2023-12-20T05:22:46;6.10;;;4.40;;
46266;SDS011;31998;48.798;15.066;2023-12-20T05:25:12;3.77;;;3.47;;
46266;SDS011;31998;48.798;15.066;2023-12-20T05:27:37;4.27;;;3.90;;
46266;SDS011;31998;48.798;15.066;2023-12-20T05:30:02;5.23;;;4.83;;
46266;SDS011;31998;48.798;15.066;2023-12-20T05:32:29;3.90;;;3.60;;
46266;SDS011;31998;48.798;15.066;2023-12-20T05:34:54;4.07;;;3.77;;
46266;SDS011;31998;48.798;15.066;2023-12-20T05:37:19;5.10;;;4.77;;
46266;SDS011;31998;48.798;15.066;2023-12-20T05:39:45;5.13;;;4.73;;
46266;SDS011;31998;48.798;15.066;2023-12-20T05:42:10;4.43;;;4.10;;
46266;SDS011;31998;48.798;15.066;2023-12-20T05:44:35;3.80;;;3.50;;
46266;SDS011;31998;48.798;15.066;2023-12-20T05:47:01;3.70;;;3.40;;
46266;SDS011;31998;48.798;15.066;2023-12-20T05:49:26;4.30;;;4.07;;
46266;SDS011;31998;48.798;15.066;2023-12-20T05:51:51;4.60;;;4.23;;
46266;SDS011;31998;48.798;15.066;2023-12-20T05:54:17;5.00;;;4.53;;
46266;SDS011;31998;48.798;15.066;2023-12-20T05:56:42;12.40;;;3.90;;
46266;SDS011;31998;48.798;15.066;2023-12-20T05:59:08;8.03;;;5.50;;
46266;SDS011;31998;48.798;15.066;2023-12-20T06:01:33;11.53;;;6.30;;
46266;SDS011;31998;48.798;15.066;2023-12-20T06:03:58;6.03;;;5.57;;
46266;SDS011;31998;48.798;15.066;2023-12-20T06:06:23;4.93;;;4.53;;
46266;SDS011;31998;48.798;15.066;2023-12-20T06:08:49;4.10;;;3.83;;
46266;SDS011;31998;48.798;15.066;2023-12-20T06:11:14;3.77;;;3.67;;
46266;SDS011;31998;48.798;15.066;2023-12-20T06:13:39;4.00;;;3.70;;
46266;SDS011;31998;48.798;15.066;2023-12-20T06:16:05;4.10;;;4.00;;
46266;SDS011;31998;48.798;15.066;2023-12-20T06:18:31;4.00;;;3.47;;
46266;SDS011;31998;48.798;15.066;2023-12-20T06:20:56;4.50;;;4.20;;
46266;SDS011;31998;48.798;15.066;2023-12-20T06:23:21;5.20;;;4.63;;
46266;SDS011;31998;48.798;15.066;2023-12-20T06:25:46;4.53;;;4.13;;
46266;SDS011;31998;48.798;15.066;2023-12-20T06:28:12;4.73;;;4.33;;
46266;SDS011;31998;48.798;15.066;2023-12-20T06:30:39;5.63;;;4.60;;
46266;SDS011;31998;48.798;15.066;2023-12-20T06:33:04;3.50;;;3.40;;
46266;SDS011;31998;48.798;15.066;2023-12-20T06:35:31;5.27;;;4.87;;
46266;SDS011;31998;48.798;15.066;2023-12-20T06:37:56;3.80;;;3.50;;
46266;SDS011;31998;48.798;15.066;2023-12-20T06:40:22;3.60;;;3.37;;
46266;SDS011;31998;48.798;15.066;2023-12-20T06:42:47;3.40;;;3.20;;
46266;SDS011;31998;48.798;15.066;2023-12-20T06:45:12;3.17;;;3.07;;
46266;SDS011;31998;48.798;15.066;2023-12-20T06:47:37;3.53;;;3.43;;
46266;SDS011;31998;48.798;15.066;2023-12-20T06:50:03;3.37;;;3.17;;
46266;SDS011;31998;48.798;15.066;2023-12-20T06:52:28;3.10;;;3.00;;
46266;SDS011;31998;48.798;15.066;2023-12-20T06:54:53;2.63;;;2.53;;
46266;SDS011;31998;48.798;15.066;2023-12-20T06:57:18;4.17;;;3.97;;
46266;SDS011;31998;48.798;15.066;2023-12-20T06:59:44;3.17;;;3.07;;
46266;SDS011;31998;48.798;15.066;2023-12-20T07:02:10;13.53;;;2.80;;
46266;SDS011;31998;48.798;15.066;2023-12-20T07:04:41;3.00;;;2.90;;
46266;SDS011;31998;48.798;15.066;2023-12-20T07:07:06;3.17;;;2.83;;
46266;SDS011;31998;48.798;15.066;2023-12-20T07:09:32;3.07;;;2.87;;
46266;SDS011;31998;48.798;15.066;2023-12-20T07:11:57;2.80;;;2.70;;
46266;SDS011;31998;48.798;15.066;2023-12-20T07:14:23;10.50;;;9.20;;
46266;SDS011;31998;48.798;15.066;2023-12-20T07:16:48;3.87;;;3.03;;
46266;SDS011;31998;48.798;15.066;2023-12-20T07:19:13;3.17;;;3.07;;
46266;SDS011;31998;48.798;15.066;2023-12-20T07:21:39;2.73;;;2.63;;
46266;SDS011;31998;48.798;15.066;2023-12-20T07:24:04;3.17;;;3.00;;
46266;SDS011;31998;48.798;15.066;2023-12-20T07:26:29;4.17;;;2.23;;
46266;SDS011;31998;48.798;15.066;2023-12-20T07:28:54;2.73;;;2.63;;
46266;SDS011;31998;48.798;15.066;2023-12-20T07:31:20;2.93;;;2.83;;
46266;SDS011;31998;48.798;15.066;2023-12-20T07:33:45;3.53;;;3.30;;
46266;SDS011;31998;48.798;15.066;2023-12-20T07:36:10;3.30;;;3.20;;
46266;SDS011;31998;48.798;15.066;2023-12-20T07:38:36;3.00;;;2.90;;
46266;SDS011;31998;48.798;15.066;2023-12-20T07:41:01;3.20;;;3.10;;
46266;SDS011;31998;48.798;15.066;2023-12-20T07:43:27;4.10;;;2.43;;
46266;SDS011;31998;48.798;15.066;2023-12-20T07:45:52;3.13;;;3.03;;
46266;SDS011;31998;48.798;15.066;2023-12-20T07:48:17;2.97;;;2.80;;
46266;SDS011;31998;48.798;15.066;2023-12-20T07:50:42;3.20;;;3.10;;
46266;SDS011;31998;48.798;15.066;2023-12-20T07:53:08;3.60;;;3.50;;
46266;SDS011;31998;48.798;15.066;2023-12-20T07:55:33;2.70;;;2.70;;
46266;SDS011;31998;48.798;15.066;2023-12-20T07:57:59;3.30;;;3.20;;
46266;SDS011;31998;48.798;15.066;2023-12-20T08:00:25;3.07;;;2.97;;
46266;SDS011;31998;48.798;15.066;2023-12-20T08:02:50;3.43;;;3.33;;
46266;SDS011;31998;48.798;15.066;2023-12-20T08:05:15;3.47;;;3.27;;
46266;SDS011;31998;48.798;15.066;2023-12-20T08:07:40;2.90;;;2.80;;
46266;SDS011;31998;48.798;15.066;2023-12-20T08:10:06;3.60;;;3.40;;
46266;SDS011;31998;48.798;15.066;2023-12-20T08:12:31;2.53;;;2.43;;
46266;SDS011;31998;48.798;15.066;2023-12-20T08:14:56;2.93;;;2.90;;
46266;SDS011;31998;48.798;15.066;2023-12-20T08:17:22;3.27;;;3.17;;
46266;SDS011;31998;48.798;15.066;2023-12-20T08:19:48;3.30;;;3.13;;
46266;SDS011;31998;48.798;15.066;2023-12-20T08:22:13;2.97;;;2.87;;
46266;SDS011;31998;48.798;15.066;2023-12-20T08:24:38;3.40;;;3.20;;
46266;SDS011;31998;48.798;15.066;2023-12-20T08:27:04;3.27;;;3.07;;
46266;SDS011;31998;48.798;15.066;2023-12-20T08:29:29;2.83;;;2.73;;
46266;SDS011;31998;48.798;15.066;2023-12-20T08:31:55;3.40;;;3.10;;
46266;SDS011;31998;48.798;15.066;2023-12-20T08:34:20;4.10;;;3.80;;
46266;SDS011;31998;48.798;15.066;2023-12-20T08:36:45;3.50;;;3.30;;
46266;SDS011;31998;48.798;15.066;2023-12-20T08:39:11;5.17;;;4.77;;
46266;SDS011;31998;48.798;15.066;2023-12-20T08:41:36;2.17;;;2.07;;
46266;SDS011;31998;48.798;15.066;2023-12-20T08:44:02;2.30;;;2.20;;
46266;SDS011;31998;48.798;15.066;2023-12-20T08:46:27;3.80;;;3.60;;
46266;SDS011;31998;48.798;15.066;2023-12-20T08:48:52;4.07;;;3.77;;
46266;SDS011;31998;48.798;15.066;2023-12-20T08:51:17;6.27;;;5.67;;
46266;SDS011;31998;48.798;15.066;2023-12-20T08:53:44;2.10;;;2.00;;
46266;SDS011;31998;48.798;15.066;2023-12-20T08:56:10;3.30;;;3.20;;
46266;SDS011;31998;48.798;15.066;2023-12-20T08:58:35;3.17;;;2.97;;
46266;SDS011;31998;48.798;15.066;2023-12-20T09:01:01;2.47;;;2.37;;
46266;SDS011;31998;48.798;15.066;2023-12-20T09:03:26;1.17;;;1.17;;
46266;SDS011;31998;48.798;15.066;2023-12-20T09:05:51;0.93;;;0.90;;
46266;SDS011;31998;48.798;15.066;2023-12-20T09:08:16;1.80;;;1.70;;
46266;SDS011;31998;48.798;15.066;2023-12-20T09:10:41;1.60;;;1.50;;
46266;SDS011;31998;48.798;15.066;2023-12-20T09:13:07;1.07;;;1.07;;
46266;SDS011;31998;48.798;15.066;2023-12-20T09:15:32;3.30;;;3.10;;
46266;SDS011;31998;48.798;15.066;2023-12-20T09:17:59;0.80;;;0.80;;
46266;SDS011;31998;48.798;15.066;2023-12-20T09:20:24;0.60;;;0.60;;
46266;SDS011;31998;48.798;15.066;2023-12-20T09:22:50;0.80;;;0.80;;
46266;SDS011;31998;48.798;15.066;2023-12-20T09:25:15;0.50;;;0.50;;
46266;SDS011;31998;48.798;15.066;2023-12-20T09:27:42;0.93;;;0.93;;
46266;SDS011;31998;48.798;15.066;2023-12-20T09:30:07;1.23;;;1.20;;
46266;SDS011;31998;48.798;15.066;2023-12-20T09:32:33;0.60;;;0.60;;
46266;SDS011;31998;48.798;15.066;2023-12-20T09:34:58;0.40;;;0.40;;
46266;SDS011;31998;48.798;15.066;2023-12-20T09:37:26;1.07;;;1.07;;
46266;SDS011;31998;48.798;15.066;2023-12-20T09:39:52;0.53;;;0.53;;
46266;SDS011;31998;48.798;15.066;2023-12-20T09:42:21;0.70;;;0.70;;
46266;SDS011;31998;48.798;15.066;2023-12-20T09:44:49;0.50;;;0.50;;
46266;SDS011;31998;48.798;15.066;2023-12-20T09:47:14;0.50;;;0.50;;
46266;SDS011;31998;48.798;15.066;2023-12-20T09:49:40;0.57;;;0.57;;
46266;SDS011;31998;48.798;15.066;2023-12-20T09:52:07;0.50;;;0.50;;
46266;SDS011;31998;48.798;15.066;2023-12-20T09:54:34;0.90;;;0.90;;
46266;SDS011;31998;48.798;15.066;2023-12-20T09:56:59;1.17;;;1.17;;
46266;SDS011;31998;48.798;15.066;2023-12-20T09:59:24;1.40;;;1.40;;
46266;SDS011;31998;48.798;15.066;2023-12-20T10:01:50;1.07;;;1.03;;
46266;SDS011;31998;48.798;15.066;2023-12-20T10:04:16;1.93;;;1.40;;
46266;SDS011;31998;48.798;15.066;2023-12-20T10:06:42;0.60;;;0.60;;
46266;SDS011;31998;48.798;15.066;2023-12-20T10:09:08;0.70;;;0.70;;
46266;SDS011;31998;48.798;15.066;2023-12-20T10:11:34;0.53;;;0.53;;
46266;SDS011;31998;48.798;15.066;2023-12-20T10:14:00;0.40;;;0.40;;
46266;SDS011;31998;48.798;15.066;2023-12-20T10:16:26;0.67;;;0.67;;
46266;SDS011;31998;48.798;15.066;2023-12-20T10:18:52;0.90;;;0.90;;
46266;SDS011;31998;48.798;15.066;2023-12-20T10:21:18;0.50;;;0.50;;
46266;SDS011;31998;48.798;15.066;2023-12-20T10:23:43;0.57;;;0.47;;
46266;SDS011;31998;48.798;15.066;2023-12-20T10:26:08;0.40;;;0.40;;
46266;SDS011;31998;48.798;15.066;2023-12-20T10:28:34;0.40;;;0.40;;
46266;SDS011;31998;48.798;15.066;2023-12-20T10:31:00;0.50;;;0.50;;
46266;SDS011;31998;48.798;15.066;2023-12-20T10:33:26;0.40;;;0.40;;
46266;SDS011;31998;48.798;15.066;2023-12-20T10:35:51;0.30;;;0.30;;
46266;SDS011;31998;48.798;15.066;2023-12-20T10:38:17;1.00;;;0.53;;
46266;SDS011;31998;48.798;15.066;2023-12-20T10:40:42;0.40;;;0.40;;
46266;SDS011;31998;48.798;15.066;2023-12-20T10:43:08;0.40;;;0.40;;
46266;SDS011;31998;48.798;15.066;2023-12-20T10:45:33;3.23;;;3.03;;
46266;SDS011;31998;48.798;15.066;2023-12-20T10:47:59;0.40;;;0.40;;
46266;SDS011;31998;48.798;15.066;2023-12-20T10:50:25;0.57;;;0.57;;
46266;SDS011;31998;48.798;15.066;2023-12-20T10:52:51;1.03;;;1.00;;
46266;SDS011;31998;48.798;15.066;2023-12-20T10:55:20;0.60;;;0.60;;
46266;SDS011;31998;48.798;15.066;2023-12-20T10:57:46;7.80;;;5.17;;
46266;SDS011;31998;48.798;15.066;2023-12-20T11:00:15;0.60;;;0.53;;
46266;SDS011;31998;48.798;15.066;2023-12-20T11:02:42;0.50;;;0.50;;
46266;SDS011;31998;48.798;15.066;2023-12-20T11:07:58;0.90;;;0.70;;
46266;SDS011;31998;48.798;15.066;2023-12-20T11:10:31;0.60;;;0.60;;
46266;SDS011;31998;48.798;15.066;2023-12-20T11:13:06;0.40;;;0.40;;
46266;SDS011;31998;48.798;15.066;2023-12-20T11:15:35;0.40;;;0.40;;
46266;SDS011;31998;48.798;15.066;2023-12-20T11:18:00;0.60;;;0.60;;
46266;SDS011;31998;48.798;15.066;2023-12-20T11:20:38;0.30;;;0.30;;
46266;SDS011;31998;48.798;15.066;2023-12-20T11:23:03;0.30;;;0.30;;
46266;SDS011;31998;48.798;15.066;2023-12-20T11:25:29;0.50;;;0.40;;
46266;SDS011;31998;48.798;15.066;2023-12-20T11:28:08;0.40;;;0.40;;
46266;SDS011;31998;48.798;15.066;2023-12-20T11:33:08;0.40;;;0.40;;
46266;SDS011;31998;48.798;15.066;2023-12-20T11:35:34;0.50;;;0.50;;
46266;SDS011;31998;48.798;15.066;2023-12-20T11:38:00;0.40;;;0.40;;
46266;SDS011;31998;48.798;15.066;2023-12-20T11:40:25;4.00;;;0.40;;
46266;SDS011;31998;48.798;15.066;2023-12-20T11:42:51;0.37;;;0.37;;
46266;SDS011;31998;48.798;15.066;2023-12-20T11:45:21;0.73;;;0.73;;
46266;SDS011;31998;48.798;15.066;2023-12-20T11:47:49;0.40;;;0.40;;
46266;SDS011;31998;48.798;15.066;2023-12-20T11:50:21;0.80;;;0.80;;
46266;SDS011;31998;48.798;15.066;2023-12-20T11:52:47;0.53;;;0.53;;
46266;SDS011;31998;48.798;15.066;2023-12-20T11:55:12;0.50;;;0.50;;
46266;SDS011;31998;48.798;15.066;2023-12-20T11:57:37;0.43;;;0.43;;
46266;SDS011;31998;48.798;15.066;2023-12-20T12:00:03;1.70;;;1.70;;
46266;SDS011;31998;48.798;15.066;2023-12-20T12:02:29;0.60;;;0.60;;
46266;SDS011;31998;48.798;15.066;2023-12-20T12:04:55;0.40;;;0.40;;
46266;SDS011;31998;48.798;15.066;2023-12-20T12:07:21;0.77;;;0.40;;
46266;SDS011;31998;48.798;15.066;2023-12-20T12:09:47;0.83;;;0.37;;
46266;SDS011;31998;48.798;15.066;2023-12-20T12:12:12;0.53;;;0.53;;
46266;SDS011;31998;48.798;15.066;2023-12-20T12:14:37;3.70;;;0.50;;
46266;SDS011;31998;48.798;15.066;2023-12-20T12:17:03;1.40;;;0.30;;
46266;SDS011;31998;48.798;15.066;2023-12-20T12:19:29;0.40;;;0.40;;
46266;SDS011;31998;48.798;15.066;2023-12-20T12:24:51;0.50;;;0.50;;
46266;SDS011;31998;48.798;15.066;2023-12-20T12:27:17;1.10;;;0.97;;
46266;SDS011;31998;48.798;15.066;2023-12-20T12:30:01;2.27;;;2.17;;
46266;SDS011;31998;48.798;15.066;2023-12-20T12:32:27;0.60;;;0.60;;
46266;SDS011;31998;48.798;15.066;2023-12-20T12:34:52;1.00;;;1.00;;
46266;SDS011;31998;48.798;15.066;2023-12-20T12:37:18;2.43;;;2.33;;
46266;SDS011;31998;48.798;15.066;2023-12-20T12:39:43;7.83;;;6.90;;
46266;SDS011;31998;48.798;15.066;2023-12-20T12:42:08;0.70;;;0.70;;
46266;SDS011;31998;48.798;15.066;2023-12-20T12:44:33;0.90;;;0.90;;
46266;SDS011;31998;48.798;15.066;2023-12-20T12:46:59;1.13;;;1.03;;
46266;SDS011;31998;48.798;15.066;2023-12-20T12:49:24;0.80;;;0.80;;
46266;SDS011;31998;48.798;15.066;2023-12-20T12:51:49;6.13;;;0.80;;
46266;SDS011;31998;48.798;15.066;2023-12-20T12:54:14;3.07;;;1.00;;
46266;SDS011;31998;48.798;15.066;2023-12-20T12:56:41;1.33;;;1.23;;
46266;SDS011;31998;48.798;15.066;2023-12-20T12:59:07;0.73;;;0.70;;
46266;SDS011;31998;48.798;15.066;2023-12-20T13:01:32;0.80;;;0.80;;
46266;SDS011;31998;48.798;15.066;2023-12-20T13:03:57;0.87;;;0.87;;
46266;SDS011;31998;48.798;15.066;2023-12-20T13:06:23;1.50;;;1.47;;
46266;SDS011;31998;48.798;15.066;2023-12-20T13:08:48;0.90;;;0.90;;
46266;SDS011;31998;48.798;15.066;2023-12-20T13:11:13;1.20;;;0.90;;
46266;SDS011;31998;48.798;15.066;2023-12-20T13:13:38;0.70;;;0.70;;
46266;SDS011;31998;48.798;15.066;2023-12-20T13:16:04;0.50;;;0.50;;
46266;SDS011;31998;48.798;15.066;2023-12-20T13:18:29;1.00;;;0.73;;
46266;SDS011;31998;48.798;15.066;2023-12-20T13:20:54;0.80;;;0.67;;
46266;SDS011;31998;48.798;15.066;2023-12-20T13:23:19;0.53;;;0.53;;
46266;SDS011;31998;48.798;15.066;2023-12-20T13:25:45;1.30;;;1.30;;
46266;SDS011;31998;48.798;15.066;2023-12-20T13:28:11;0.60;;;0.60;;
46266;SDS011;31998;48.798;15.066;2023-12-20T13:30:36;1.47;;;1.37;;
46266;SDS011;31998;48.798;15.066;2023-12-20T13:33:01;0.40;;;0.40;;
46266;SDS011;31998;48.798;15.066;2023-12-20T13:35:26;0.70;;;0.70;;
46266;SDS011;31998;48.798;15.066;2023-12-20T13:37:52;2.53;;;0.40;;
46266;SDS011;31998;48.798;15.066;2023-12-20T13:40:17;2.97;;;0.70;;
46266;SDS011;31998;48.798;15.066;2023-12-20T13:42:43;0.30;;;0.30;;
46266;SDS011;31998;48.798;15.066;2023-12-20T13:45:08;0.40;;;0.40;;
46266;SDS011;31998;48.798;15.066;2023-12-20T13:47:33;0.40;;;0.40;;
46266;SDS011;31998;48.798;15.066;2023-12-20T13:49:58;1.90;;;0.40;;
46266;SDS011;31998;48.798;15.066;2023-12-20T13:52:23;0.80;;;0.80;;
46266;SDS011;31998;48.798;15.066;2023-12-20T13:54:49;0.70;;;0.70;;
46266;SDS011;31998;48.798;15.066;2023-12-20T13:57:14;0.50;;;0.50;;
46266;SDS011;31998;48.798;15.066;2023-12-20T13:59:39;1.63;;;1.33;;
46266;SDS011;31998;48.798;15.066;2023-12-20T14:02:04;0.60;;;0.60;;
46266;SDS011;31998;48.798;15.066;2023-12-20T14:04:30;0.40;;;0.40;;
46266;SDS011;31998;48.798;15.066;2023-12-20T14:06:56;1.00;;;1.00;;
46266;SDS011;31998;48.798;15.066;2023-12-20T14:09:21;1.10;;;1.10;;
46266;SDS011;31998;48.798;15.066;2023-12-20T14:11:46;0.60;;;0.60;;
46266;SDS011;31998;48.798;15.066;2023-12-20T14:14:11;0.90;;;0.43;;
46266;SDS011;31998;48.798;15.066;2023-12-20T14:16:36;1.70;;;1.70;;
46266;SDS011;31998;48.798;15.066;2023-12-20T14:19:03;0.90;;;0.60;;
46266;SDS011;31998;48.798;15.066;2023-12-20T14:21:28;3.10;;;0.60;;
46266;SDS011;31998;48.798;15.066;2023-12-20T14:23:53;0.87;;;0.60;;
46266;SDS011;31998;48.798;15.066;2023-12-20T14:26:19;1.00;;;1.00;;
46266;SDS011;31998;48.798;15.066;2023-12-20T14:28:44;1.00;;;0.97;;
46266;SDS011;31998;48.798;15.066;2023-12-20T14:31:09;0.80;;;0.80;;
46266;SDS011;31998;48.798;15.066;2023-12-20T14:33:35;1.20;;;1.10;;
46266;SDS011;31998;48.798;15.066;2023-12-20T14:36:01;0.90;;;0.90;;